< < Back
Terminal Aerodrome Forecast


Current Version              Previous Versions:   1  2  3  4  5  6  7  8  9  

Terminal Aerodrome Forecast

911
FTUS42 KGSP 010827 AAA
TAFHKY
TAF AMD
KHKY 010827Z 0108/0206 33005KT P6SM -RA OVC006
      TEMPO 0108/0112 3SM RA BR SCT006 BKN015
     FM011400 18006KT 5SM BR OVC006
     FM011700 20007KT P6SM -SHRA BKN012
      TEMPO 0119/0123 3SM TSRA BR OVC020CB
     FM012300 22007KT P6SM BKN040=



Latest METAR

318
SAUS70 KWBC 012300 RRL
MTRHKY
METAR KHKY 012253Z AUTO 31004KT 10SM FEW036 FEW046 21/19 A3000 RMK AO2
LTG DSNT SW SLP140 T02110189


USA.gov is the U.S. government's official web portal to all federal, state and local government web resources and services.